sensor_id;sensor_type;location;lat;lon;timestamp;pressure;altitude;pressure_sealevel;temperature;humidity
39954;BME280;25631;51.516;-0.470;2022-10-16T00:00:13;100333.05;;;10.43;40.98
39954;BME280;25631;51.516;-0.470;2022-10-16T00:02:49;100330.12;;;10.53;40.94
39954;BME280;25631;51.516;-0.470;2022-10-16T00:05:25;100333.79;;;10.66;40.73
39954;BME280;25631;51.516;-0.470;2022-10-16T00:08:02;100338.90;;;10.20;40.64
39954;BME280;25631;51.516;-0.470;2022-10-16T00:10:38;100336.41;;;10.50;40.53
39954;BME280;25631;51.516;-0.470;2022-10-16T00:13:15;100332.78;;;10.59;40.52
39954;BME280;25631;51.516;-0.470;2022-10-16T00:15:55;100333.66;;;10.47;40.49
39954;BME280;25631;51.516;-0.470;2022-10-16T00:18:31;100333.86;;;10.49;40.41
39954;BME280;25631;51.516;-0.470;2022-10-16T00:21:10;100337.27;;;10.74;40.43
39954;BME280;25631;51.516;-0.470;2022-10-16T00:23:49;100337.29;;;10.57;40.51
39954;BME280;25631;51.516;-0.470;2022-10-16T00:26:28;100343.31;;;10.64;40.60
39954;BME280;25631;51.516;-0.470;2022-10-16T00:29:05;100343.68;;;10.51;40.65
39954;BME280;25631;51.516;-0.470;2022-10-16T00:31:42;100348.54;;;10.58;40.75
39954;BME280;25631;51.516;-0.470;2022-10-16T00:34:18;100347.32;;;10.53;40.84
39954;BME280;25631;51.516;-0.470;2022-10-16T00:36:55;100340.57;;;10.79;40.79
39954;BME280;25631;51.516;-0.470;2022-10-16T00:39:31;100345.63;;;10.61;41.12
39954;BME280;25631;51.516;-0.470;2022-10-16T00:42:10;100350.71;;;10.78;41.23
39954;BME280;25631;51.516;-0.470;2022-10-16T00:44:52;100356.88;;;10.65;41.55
39954;BME280;25631;51.516;-0.470;2022-10-16T00:47:32;100351.85;;;10.60;41.77
39954;BME280;25631;51.516;-0.470;2022-10-16T00:50:13;100350.53;;;10.49;41.90
39954;BME280;25631;51.516;-0.470;2022-10-16T00:52:53;100355.87;;;10.64;42.26
39954;BME280;25631;51.516;-0.470;2022-10-16T00:55:30;100355.03;;;10.54;42.01
39954;BME280;25631;51.516;-0.470;2022-10-16T00:58:07;100359.83;;;10.41;42.01
39954;BME280;25631;51.516;-0.470;2022-10-16T01:00:43;100361.61;;;10.16;42.15
39954;BME280;25631;51.516;-0.470;2022-10-16T01:03:27;100364.43;;;10.35;41.89
39954;BME280;25631;51.516;-0.470;2022-10-16T01:06:12;100368.33;;;10.23;41.40
39954;BME280;25631;51.516;-0.470;2022-10-16T01:09:06;100368.90;;;10.04;41.04
39954;BME280;25631;51.516;-0.470;2022-10-16T01:11:56;100374.74;;;9.92;40.67
39954;BME280;25631;51.516;-0.470;2022-10-16T01:14:40;100380.71;;;10.30;40.54
39954;BME280;25631;51.516;-0.470;2022-10-16T01:17:25;100382.09;;;10.08;40.31
39954;BME280;25631;51.516;-0.470;2022-10-16T01:20:11;100377.58;;;9.88;40.14
39954;BME280;25631;51.516;-0.470;2022-10-16T01:22:59;100377.89;;;10.00;40.00
39954;BME280;25631;51.516;-0.470;2022-10-16T01:25:52;100381.96;;;10.16;39.94
39954;BME280;25631;51.516;-0.470;2022-10-16T01:28:36;100384.72;;;9.90;40.00
39954;BME280;25631;51.516;-0.470;2022-10-16T01:31:18;100370.05;;;10.10;39.92
39954;BME280;25631;51.516;-0.470;2022-10-16T01:34:00;100370.02;;;10.43;39.81
39954;BME280;25631;51.516;-0.470;2022-10-16T01:36:41;100363.04;;;10.30;39.84
39954;BME280;25631;51.516;-0.470;2022-10-16T01:39:23;100365.48;;;10.23;39.95
39954;BME280;25631;51.516;-0.470;2022-10-16T01:42:06;100369.03;;;10.35;39.82
39954;BME280;25631;51.516;-0.470;2022-10-16T01:44:45;100373.51;;;10.46;39.57
39954;BME280;25631;51.516;-0.470;2022-10-16T01:47:25;100367.53;;;10.38;39.59
39954;BME280;25631;51.516;-0.470;2022-10-16T01:50:04;100375.07;;;10.46;39.52
39954;BME280;25631;51.516;-0.470;2022-10-16T01:52:44;100376.41;;;10.57;39.58
39954;BME280;25631;51.516;-0.470;2022-10-16T01:55:26;100380.97;;;10.45;39.83
39954;BME280;25631;51.516;-0.470;2022-10-16T01:58:07;100385.79;;;10.52;39.99
39954;BME280;25631;51.516;-0.470;2022-10-16T02:00:46;100390.09;;;10.58;40.05
39954;BME280;25631;51.516;-0.470;2022-10-16T02:03:24;100390.19;;;10.55;40.18
39954;BME280;25631;51.516;-0.470;2022-10-16T02:06:00;100394.13;;;10.48;40.20
39954;BME280;25631;51.516;-0.470;2022-10-16T02:08:37;100398.96;;;10.54;40.24
39954;BME280;25631;51.516;-0.470;2022-10-16T02:11:13;100406.61;;;10.42;40.34
39954;BME280;25631;51.516;-0.470;2022-10-16T02:13:53;100416.86;;;10.61;40.54
39954;BME280;25631;51.516;-0.470;2022-10-16T02:16:34;100414.58;;;10.39;40.39
39954;BME280;25631;51.516;-0.470;2022-10-16T02:19:11;100418.43;;;10.47;40.33
39954;BME280;25631;51.516;-0.470;2022-10-16T02:21:50;100423.73;;;10.32;40.26
39954;BME280;25631;51.516;-0.470;2022-10-16T02:24:32;100428.32;;;10.10;40.58
39954;BME280;25631;51.516;-0.470;2022-10-16T02:27:12;100428.34;;;10.29;40.40
39954;BME280;25631;51.516;-0.470;2022-10-16T02:29:53;100431.57;;;10.33;40.42
39954;BME280;25631;51.516;-0.470;2022-10-16T02:32:33;100428.57;;;10.12;40.46
39954;BME280;25631;51.516;-0.470;2022-10-16T02:35:11;100437.88;;;9.85;40.70
39954;BME280;25631;51.516;-0.470;2022-10-16T02:37:48;100441.98;;;10.06;40.67
39954;BME280;25631;51.516;-0.470;2022-10-16T02:40:26;100436.08;;;10.15;40.66
39954;BME280;25631;51.516;-0.470;2022-10-16T02:43:04;100442.39;;;9.79;41.01
39954;BME280;25631;51.516;-0.470;2022-10-16T02:45:41;100446.00;;;10.01;40.70
39954;BME280;25631;51.516;-0.470;2022-10-16T02:48:17;100447.93;;;9.65;40.85
39954;BME280;25631;51.516;-0.470;2022-10-16T02:50:54;100452.82;;;10.06;40.74
39954;BME280;25631;51.516;-0.470;2022-10-16T02:53:31;100461.95;;;9.96;40.82
39954;BME280;25631;51.516;-0.470;2022-10-16T02:56:08;100463.27;;;9.98;40.77
39954;BME280;25631;51.516;-0.470;2022-10-16T02:58:44;100471.35;;;10.04;40.70
39954;BME280;25631;51.516;-0.470;2022-10-16T03:01:20;100467.57;;;9.69;40.81
39954;BME280;25631;51.516;-0.470;2022-10-16T03:03:57;100473.09;;;9.88;40.74
39954;BME280;25631;51.516;-0.470;2022-10-16T03:06:33;100478.55;;;10.16;40.77
39954;BME280;25631;51.516;-0.470;2022-10-16T03:09:10;100480.67;;;9.59;40.78
39954;BME280;25631;51.516;-0.470;2022-10-16T03:11:46;100474.96;;;9.74;40.82
39954;BME280;25631;51.516;-0.470;2022-10-16T03:14:22;100481.67;;;9.63;40.98
39954;BME280;25631;51.516;-0.470;2022-10-16T03:16:59;100473.88;;;9.89;40.83
39954;BME280;25631;51.516;-0.470;2022-10-16T03:19:35;100477.28;;;10.21;40.80
39954;BME280;25631;51.516;-0.470;2022-10-16T03:22:11;100477.17;;;10.19;40.96
39954;BME280;25631;51.516;-0.470;2022-10-16T03:24:48;100476.69;;;9.73;41.16
39954;BME280;25631;51.516;-0.470;2022-10-16T03:27:24;100478.22;;;9.78;41.62
39954;BME280;25631;51.516;-0.470;2022-10-16T03:30:01;100480.16;;;9.85;41.62
39954;BME280;25631;51.516;-0.470;2022-10-16T03:32:37;100477.76;;;9.59;41.80
39954;BME280;25631;51.516;-0.470;2022-10-16T03:35:13;100482.66;;;9.57;41.88
39954;BME280;25631;51.516;-0.470;2022-10-16T03:37:50;100483.68;;;9.78;42.09
39954;BME280;25631;51.516;-0.470;2022-10-16T03:40:27;100485.68;;;9.78;42.00
39954;BME280;25631;51.516;-0.470;2022-10-16T03:43:03;100495.83;;;9.65;42.07
39954;BME280;25631;51.516;-0.470;2022-10-16T03:45:39;100502.66;;;9.70;42.21
39954;BME280;25631;51.516;-0.470;2022-10-16T03:48:16;100507.21;;;9.65;42.22
39954;BME280;25631;51.516;-0.470;2022-10-16T03:50:52;100522.02;;;9.85;42.41
39954;BME280;25631;51.516;-0.470;2022-10-16T03:53:29;100524.76;;;9.58;42.38
39954;BME280;25631;51.516;-0.470;2022-10-16T03:56:06;100523.77;;;9.91;42.25
39954;BME280;25631;51.516;-0.470;2022-10-16T03:58:43;100527.60;;;10.13;42.11
39954;BME280;25631;51.516;-0.470;2022-10-16T04:01:19;100528.38;;;9.79;42.07
39954;BME280;25631;51.516;-0.470;2022-10-16T04:03:55;100535.04;;;9.83;42.18
39954;BME280;25631;51.516;-0.470;2022-10-16T04:06:32;100537.26;;;10.03;42.02
39954;BME280;25631;51.516;-0.470;2022-10-16T04:09:08;100542.01;;;9.92;42.37
39954;BME280;25631;51.516;-0.470;2022-10-16T04:11:44;100548.46;;;9.61;42.32
39954;BME280;25631;51.516;-0.470;2022-10-16T04:14:21;100551.08;;;9.86;42.20
39954;BME280;25631;51.516;-0.470;2022-10-16T04:16:57;100554.11;;;9.68;42.20
39954;BME280;25631;51.516;-0.470;2022-10-16T04:19:34;100560.13;;;9.65;42.07
39954;BME280;25631;51.516;-0.470;2022-10-16T04:22:10;100563.59;;;9.48;42.03
39954;BME280;25631;51.516;-0.470;2022-10-16T04:24:46;100565.46;;;9.85;41.85
39954;BME280;25631;51.516;-0.470;2022-10-16T04:27:23;100571.39;;;10.01;41.66
39954;BME280;25631;51.516;-0.470;2022-10-16T04:29:59;100573.55;;;10.02;41.57
39954;BME280;25631;51.516;-0.470;2022-10-16T04:32:36;100579.10;;;10.01;41.60
39954;BME280;25631;51.516;-0.470;2022-10-16T04:35:12;100584.00;;;9.84;41.61
39954;BME280;25631;51.516;-0.470;2022-10-16T04:37:49;100589.25;;;9.68;41.61
39954;BME280;25631;51.516;-0.470;2022-10-16T04:40:25;100597.56;;;9.67;41.69
39954;BME280;25631;51.516;-0.470;2022-10-16T04:43:01;100606.95;;;9.68;41.82
39954;BME280;25631;51.516;-0.470;2022-10-16T04:45:38;100614.01;;;9.60;41.90
39954;BME280;25631;51.516;-0.470;2022-10-16T04:48:14;100617.17;;;9.43;42.13
39954;BME280;25631;51.516;-0.470;2022-10-16T04:50:51;100623.87;;;9.27;42.37
39954;BME280;25631;51.516;-0.470;2022-10-16T04:53:27;100629.74;;;9.08;42.63
39954;BME280;25631;51.516;-0.470;2022-10-16T04:56:04;100637.44;;;9.20;42.75
39954;BME280;25631;51.516;-0.470;2022-10-16T04:58:40;100643.33;;;9.18;42.80
39954;BME280;25631;51.516;-0.470;2022-10-16T05:01:16;100640.96;;;8.97;42.98
39954;BME280;25631;51.516;-0.470;2022-10-16T05:03:53;100645.89;;;8.90;43.06
39954;BME280;25631;51.516;-0.470;2022-10-16T05:06:29;100648.67;;;8.88;43.31
39954;BME280;25631;51.516;-0.470;2022-10-16T05:09:06;100650.67;;;9.09;43.24
39954;BME280;25631;51.516;-0.470;2022-10-16T05:11:42;100657.06;;;9.09;43.34
39954;BME280;25631;51.516;-0.470;2022-10-16T05:14:18;100664.34;;;9.00;43.36
39954;BME280;25631;51.516;-0.470;2022-10-16T05:16:55;100667.21;;;8.71;43.36
39954;BME280;25631;51.516;-0.470;2022-10-16T05:19:31;100671.88;;;9.22;43.28
39954;BME280;25631;51.516;-0.470;2022-10-16T05:22:08;100671.13;;;8.97;43.28
39954;BME280;25631;51.516;-0.470;2022-10-16T05:24:44;100674.46;;;8.96;43.53
39954;BME280;25631;51.516;-0.470;2022-10-16T05:27:21;100678.08;;;9.11;43.45
39954;BME280;25631;51.516;-0.470;2022-10-16T05:29:57;100681.57;;;9.01;43.52
39954;BME280;25631;51.516;-0.470;2022-10-16T05:32:33;100683.76;;;8.71;43.38
39954;BME280;25631;51.516;-0.470;2022-10-16T05:35:10;100687.92;;;8.62;43.25
39954;BME280;25631;51.516;-0.470;2022-10-16T05:37:47;100689.74;;;8.90;43.13
39954;BME280;25631;51.516;-0.470;2022-10-16T05:40:24;100696.83;;;8.83;43.02
39954;BME280;25631;51.516;-0.470;2022-10-16T05:43:00;100698.37;;;8.91;42.96
39954;BME280;25631;51.516;-0.470;2022-10-16T05:45:36;100701.19;;;8.69;42.86
39954;BME280;25631;51.516;-0.470;2022-10-16T05:48:13;100703.29;;;8.67;42.77
39954;BME280;25631;51.516;-0.470;2022-10-16T05:50:56;100709.72;;;8.98;42.66
39954;BME280;25631;51.516;-0.470;2022-10-16T05:53:35;100711.47;;;8.67;42.49
39954;BME280;25631;51.516;-0.470;2022-10-16T05:56:11;100717.44;;;8.83;42.38
39954;BME280;25631;51.516;-0.470;2022-10-16T05:58:48;100729.25;;;8.82;42.18
39954;BME280;25631;51.516;-0.470;2022-10-16T06:01:24;100730.89;;;9.10;42.09
39954;BME280;25631;51.516;-0.470;2022-10-16T06:04:01;100731.28;;;8.98;42.08
39954;BME280;25631;51.516;-0.470;2022-10-16T06:06:38;100731.36;;;9.23;41.92
39954;BME280;25631;51.516;-0.470;2022-10-16T06:09:14;100733.64;;;9.08;41.75
39954;BME280;25631;51.516;-0.470;2022-10-16T06:11:51;100733.99;;;9.00;41.78
39954;BME280;25631;51.516;-0.470;2022-10-16T06:14:27;100733.15;;;9.08;41.81
39954;BME280;25631;51.516;-0.470;2022-10-16T06:17:04;100736.30;;;9.05;41.87
39954;BME280;25631;51.516;-0.470;2022-10-16T06:19:40;100742.53;;;8.81;42.12
39954;BME280;25631;51.516;-0.470;2022-10-16T06:22:16;100734.46;;;9.07;42.09
39954;BME280;25631;51.516;-0.470;2022-10-16T06:24:53;100733.08;;;8.84;42.12
39954;BME280;25631;51.516;-0.470;2022-10-16T06:27:29;100731.77;;;9.20;42.07
39954;BME280;25631;51.516;-0.470;2022-10-16T06:30:07;100736.59;;;9.15;42.01
39954;BME280;25631;51.516;-0.470;2022-10-16T06:32:43;100740.82;;;8.87;41.88
39954;BME280;25631;51.516;-0.470;2022-10-16T06:35:20;100748.96;;;8.97;41.80
39954;BME280;25631;51.516;-0.470;2022-10-16T06:37:56;100752.14;;;8.81;41.73
39954;BME280;25631;51.516;-0.470;2022-10-16T06:40:33;100756.65;;;9.17;41.62
39954;BME280;25631;51.516;-0.470;2022-10-16T06:43:09;100758.03;;;9.23;41.63
39954;BME280;25631;51.516;-0.470;2022-10-16T06:45:51;100760.72;;;9.08;41.68
39954;BME280;25631;51.516;-0.470;2022-10-16T06:48:28;100762.93;;;9.17;41.82
39954;BME280;25631;51.516;-0.470;2022-10-16T06:51:06;100765.76;;;8.94;41.88
39954;BME280;25631;51.516;-0.470;2022-10-16T06:53:47;100768.04;;;8.82;42.04
39954;BME280;25631;51.516;-0.470;2022-10-16T06:56:25;100779.97;;;8.74;42.09
39954;BME280;25631;51.516;-0.470;2022-10-16T06:59:02;100779.21;;;8.99;42.18
39954;BME280;25631;51.516;-0.470;2022-10-16T07:01:39;100785.41;;;9.06;42.15
39954;BME280;25631;51.516;-0.470;2022-10-16T07:04:15;100794.29;;;9.06;42.06
39954;BME280;25631;51.516;-0.470;2022-10-16T07:06:51;100801.51;;;9.10;41.98
39954;BME280;25631;51.516;-0.470;2022-10-16T07:09:28;100806.33;;;9.03;42.10
39954;BME280;25631;51.516;-0.470;2022-10-16T07:12:04;100809.24;;;8.95;42.01
39954;BME280;25631;51.516;-0.470;2022-10-16T07:14:41;100814.25;;;9.13;41.94
39954;BME280;25631;51.516;-0.470;2022-10-16T07:17:17;100825.63;;;9.13;41.88
39954;BME280;25631;51.516;-0.470;2022-10-16T07:19:53;100828.94;;;8.94;41.87
39954;BME280;25631;51.516;-0.470;2022-10-16T07:22:30;100835.26;;;9.10;41.81
39954;BME280;25631;51.516;-0.470;2022-10-16T07:25:07;100839.72;;;9.27;41.80
39954;BME280;25631;51.516;-0.470;2022-10-16T07:27:44;100843.28;;;9.21;41.87
39954;BME280;25631;51.516;-0.470;2022-10-16T07:30:20;100843.69;;;9.33;41.89
39954;BME280;25631;51.516;-0.470;2022-10-16T07:32:57;100845.35;;;9.10;41.85
39954;BME280;25631;51.516;-0.470;2022-10-16T07:35:33;100847.02;;;9.40;41.88
39954;BME280;25631;51.516;-0.470;2022-10-16T07:38:09;100849.98;;;9.50;41.75
39954;BME280;25631;51.516;-0.470;2022-10-16T07:40:46;100856.65;;;9.39;41.83
39954;BME280;25631;51.516;-0.470;2022-10-16T07:43:23;100863.29;;;9.62;41.78
39954;BME280;25631;51.516;-0.470;2022-10-16T07:45:59;100872.22;;;9.65;41.72
39954;BME280;25631;51.516;-0.470;2022-10-16T07:48:36;100879.21;;;9.63;41.59
39954;BME280;25631;51.516;-0.470;2022-10-16T07:51:14;100884.79;;;9.74;41.51
39954;BME280;25631;51.516;-0.470;2022-10-16T07:53:51;100888.36;;;9.95;41.43
39954;BME280;25631;51.516;-0.470;2022-10-16T07:56:30;100891.57;;;9.95;41.42
39954;BME280;25631;51.516;-0.470;2022-10-16T07:59:07;100897.29;;;9.79;41.37
39954;BME280;25631;51.516;-0.470;2022-10-16T08:01:43;100903.85;;;9.67;41.32
39954;BME280;25631;51.516;-0.470;2022-10-16T08:04:19;100907.02;;;9.97;41.39
39954;BME280;25631;51.516;-0.470;2022-10-16T08:06:56;100908.72;;;9.85;41.34
39954;BME280;25631;51.516;-0.470;2022-10-16T08:09:32;100913.21;;;9.72;41.32
39954;BME280;25631;51.516;-0.470;2022-10-16T08:12:08;100915.91;;;9.84;41.34
39954;BME280;25631;51.516;-0.470;2022-10-16T08:14:45;100916.52;;;9.74;41.35
39954;BME280;25631;51.516;-0.470;2022-10-16T08:17:21;100917.32;;;10.01;41.42
39954;BME280;25631;51.516;-0.470;2022-10-16T08:19:58;100922.02;;;9.67;41.41
39954;BME280;25631;51.516;-0.470;2022-10-16T08:22:34;100927.05;;;10.09;41.40
39954;BME280;25631;51.516;-0.470;2022-10-16T08:25:10;100930.79;;;9.83;41.37
39954;BME280;25631;51.516;-0.470;2022-10-16T08:27:47;100933.40;;;10.29;41.27
39954;BME280;25631;51.516;-0.470;2022-10-16T08:30:24;100938.61;;;10.12;41.20
39954;BME280;25631;51.516;-0.470;2022-10-16T08:33:00;100938.50;;;10.50;41.11
39954;BME280;25631;51.516;-0.470;2022-10-16T08:35:37;100943.46;;;10.56;41.03
39954;BME280;25631;51.516;-0.470;2022-10-16T08:38:14;100940.77;;;10.16;40.96
39954;BME280;25631;51.516;-0.470;2022-10-16T08:40:51;100943.87;;;10.16;40.98
39954;BME280;25631;51.516;-0.470;2022-10-16T08:43:40;100944.79;;;10.07;40.83
39954;BME280;25631;51.516;-0.470;2022-10-16T08:46:30;100939.50;;;9.95;40.69
39954;BME280;25631;51.516;-0.470;2022-10-16T08:49:12;100945.97;;;10.24;40.69
39954;BME280;25631;51.516;-0.470;2022-10-16T08:51:49;100951.53;;;10.29;40.87
39954;BME280;25631;51.516;-0.470;2022-10-16T08:54:29;100957.46;;;10.49;40.84
39954;BME280;25631;51.516;-0.470;2022-10-16T08:57:11;100959.44;;;10.45;40.67
39954;BME280;25631;51.516;-0.470;2022-10-16T08:59:48;100964.59;;;10.52;40.76
39954;BME280;25631;51.516;-0.470;2022-10-16T09:02:31;100968.59;;;10.35;40.63
39954;BME280;25631;51.516;-0.470;2022-10-16T09:05:41;100969.68;;;10.48;40.50
39954;BME280;25631;51.516;-0.470;2022-10-16T09:08:29;100974.77;;;10.78;40.27
39954;BME280;25631;51.516;-0.470;2022-10-16T09:11:12;100979.69;;;10.71;40.23
39954;BME280;25631;51.516;-0.470;2022-10-16T09:13:57;100986.35;;;10.84;40.35
39954;BME280;25631;51.516;-0.470;2022-10-16T09:16:38;100987.81;;;10.70;40.14
39954;BME280;25631;51.516;-0.470;2022-10-16T09:19:21;100992.55;;;10.56;40.15
39954;BME280;25631;51.516;-0.470;2022-10-16T09:22:04;100995.40;;;11.01;40.06
39954;BME280;25631;51.516;-0.470;2022-10-16T09:24:46;100991.51;;;11.07;40.06
39954;BME280;25631;51.516;-0.470;2022-10-16T09:27:23;100992.79;;;11.10;39.92
39954;BME280;25631;51.516;-0.470;2022-10-16T09:29:59;100990.42;;;11.11;39.83
39954;BME280;25631;51.516;-0.470;2022-10-16T09:32:38;100995.00;;;11.34;39.60
39954;BME280;25631;51.516;-0.470;2022-10-16T09:35:17;100993.57;;;11.25;39.46
39954;BME280;25631;51.516;-0.470;2022-10-16T09:37:55;100993.51;;;11.32;39.34
39954;BME280;25631;51.516;-0.470;2022-10-16T09:40:33;100994.67;;;11.10;39.36
39954;BME280;25631;51.516;-0.470;2022-10-16T09:43:21;100991.01;;;11.34;39.35
39954;BME280;25631;51.516;-0.470;2022-10-16T09:46:00;100993.86;;;11.56;39.06
39954;BME280;25631;51.516;-0.470;2022-10-16T09:48:44;100993.64;;;11.44;38.95
39954;BME280;25631;51.516;-0.470;2022-10-16T09:51:26;100996.83;;;11.56;38.83
39954;BME280;25631;51.516;-0.470;2022-10-16T09:54:14;101001.30;;;11.48;38.85
39954;BME280;25631;51.516;-0.470;2022-10-16T09:56:51;100998.25;;;11.54;38.79
39954;BME280;25631;51.516;-0.470;2022-10-16T09:59:28;100996.46;;;11.55;38.64
39954;BME280;25631;51.516;-0.470;2022-10-16T10:02:11;100996.63;;;11.77;38.66
39954;BME280;25631;51.516;-0.470;2022-10-16T10:04:52;100999.40;;;11.78;38.66
39954;BME280;25631;51.516;-0.470;2022-10-16T10:07:32;101000.90;;;11.77;38.27
39954;BME280;25631;51.516;-0.470;2022-10-16T10:10:21;101002.90;;;11.54;38.23
39954;BME280;25631;51.516;-0.470;2022-10-16T10:12:58;101009.00;;;11.86;38.26
39954;BME280;25631;51.516;-0.470;2022-10-16T10:15:41;101007.16;;;11.83;38.17
39954;BME280;25631;51.516;-0.470;2022-10-16T10:18:20;101012.54;;;11.74;38.12
39954;BME280;25631;51.516;-0.470;2022-10-16T10:20:58;101018.15;;;11.83;37.89
39954;BME280;25631;51.516;-0.470;2022-10-16T10:23:35;101024.87;;;11.65;37.96
39954;BME280;25631;51.516;-0.470;2022-10-16T10:26:17;101026.84;;;11.66;38.00
39954;BME280;25631;51.516;-0.470;2022-10-16T10:28:59;101022.06;;;12.00;38.04
39954;BME280;25631;51.516;-0.470;2022-10-16T10:31:47;101018.55;;;12.15;38.02
39954;BME280;25631;51.516;-0.470;2022-10-16T10:34:42;101017.67;;;11.86;38.09
39954;BME280;25631;51.516;-0.470;2022-10-16T10:37:32;101013.04;;;12.23;37.99
39954;BME280;25631;51.516;-0.470;2022-10-16T10:40:18;101010.03;;;12.23;37.84
39954;BME280;25631;51.516;-0.470;2022-10-16T10:43:03;101010.39;;;11.93;37.78
39954;BME280;25631;51.516;-0.470;2022-10-16T10:45:43;101012.14;;;12.13;37.70
39954;BME280;25631;51.516;-0.470;2022-10-16T10:48:38;101012.55;;;12.25;37.44
39954;BME280;25631;51.516;-0.470;2022-10-16T10:51:23;101011.59;;;12.22;37.42
39954;BME280;25631;51.516;-0.470;2022-10-16T10:54:11;101010.71;;;12.17;37.25
39954;BME280;25631;51.516;-0.470;2022-10-16T10:56:57;101010.85;;;12.45;37.16
39954;BME280;25631;51.516;-0.470;2022-10-16T10:59:50;101015.73;;;12.46;36.91
39954;BME280;25631;51.516;-0.470;2022-10-16T11:02:36;101016.67;;;12.45;36.83
39954;BME280;25631;51.516;-0.470;2022-10-16T11:05:27;101012.39;;;12.30;36.87
39954;BME280;25631;51.516;-0.470;2022-10-16T11:08:13;101014.45;;;12.48;36.83
39954;BME280;25631;51.516;-0.470;2022-10-16T11:10:54;101012.95;;;12.57;36.84
39954;BME280;25631;51.516;-0.470;2022-10-16T11:13:36;101012.96;;;12.42;36.99
39954;BME280;25631;51.516;-0.470;2022-10-16T11:16:18;101015.77;;;12.89;36.99
39954;BME280;25631;51.516;-0.470;2022-10-16T11:19:03;101011.84;;;12.99;36.84
39954;BME280;25631;51.516;-0.470;2022-10-16T11:21:47;101009.80;;;12.87;36.75
39954;BME280;25631;51.516;-0.470;2022-10-16T11:24:35;101004.63;;;12.73;36.68
39954;BME280;25631;51.516;-0.470;2022-10-16T11:27:16;101003.78;;;13.03;36.29
39954;BME280;25631;51.516;-0.470;2022-10-16T11:29:59;101001.96;;;12.91;36.35
39954;BME280;25631;51.516;-0.470;2022-10-16T11:32:48;100999.99;;;13.05;36.55
39954;BME280;25631;51.516;-0.470;2022-10-16T11:35:39;100994.61;;;12.91;36.63
39954;BME280;25631;51.516;-0.470;2022-10-16T11:38:24;100992.35;;;13.06;36.51
39954;BME280;25631;51.516;-0.470;2022-10-16T11:41:15;100990.32;;;13.34;36.53
39954;BME280;25631;51.516;-0.470;2022-10-16T11:44:06;100996.77;;;13.11;36.44
39954;BME280;25631;51.516;-0.470;2022-10-16T11:46:53;100993.27;;;13.35;35.95
39954;BME280;25631;51.516;-0.470;2022-10-16T11:49:36;100993.25;;;13.62;36.09
39954;BME280;25631;51.516;-0.470;2022-10-16T11:52:19;100997.88;;;13.69;35.90
39954;BME280;25631;51.516;-0.470;2022-10-16T11:55:04;100998.89;;;13.61;35.60
39954;BME280;25631;51.516;-0.470;2022-10-16T11:57:46;100999.40;;;13.75;35.43
39954;BME280;25631;51.516;-0.470;2022-10-16T12:00:25;100996.44;;;13.98;35.67
39954;BME280;25631;51.516;-0.470;2022-10-16T12:03:12;100995.49;;;13.86;35.60
39954;BME280;25631;51.516;-0.470;2022-10-16T12:05:58;100998.84;;;13.92;35.32
39954;BME280;25631;51.516;-0.470;2022-10-16T12:08:36;101003.41;;;14.18;34.99
39954;BME280;25631;51.516;-0.470;2022-10-16T12:11:24;101006.83;;;13.98;34.40
39954;BME280;25631;51.516;-0.470;2022-10-16T12:14:19;101006.24;;;14.07;34.51
39954;BME280;25631;51.516;-0.470;2022-10-16T12:16:59;101003.95;;;14.31;33.56
39954;BME280;25631;51.516;-0.470;2022-10-16T12:19:36;101005.14;;;14.15;33.68
39954;BME280;25631;51.516;-0.470;2022-10-16T12:22:18;101002.79;;;14.23;33.53
39954;BME280;25631;51.516;-0.470;2022-10-16T12:24:55;101002.54;;;14.70;33.75
39954;BME280;25631;51.516;-0.470;2022-10-16T12:27:32;100994.49;;;14.73;33.66
39954;BME280;25631;51.516;-0.470;2022-10-16T12:30:20;100989.61;;;14.47;33.31
39954;BME280;25631;51.516;-0.470;2022-10-16T12:33:00;100987.91;;;14.66;33.36
39954;BME280;25631;51.516;-0.470;2022-10-16T12:35:43;100980.72;;;14.73;33.48
39954;BME280;25631;51.516;-0.470;2022-10-16T12:38:24;100976.22;;;15.10;33.35
39954;BME280;25631;51.516;-0.470;2022-10-16T12:41:04;100968.98;;;14.81;33.14
39954;BME280;25631;51.516;-0.470;2022-10-16T12:43:42;100972.84;;;14.85;33.27
39954;BME280;25631;51.516;-0.470;2022-10-16T12:46:24;100973.25;;;14.98;33.09
39954;BME280;25631;51.516;-0.470;2022-10-16T12:49:28;100977.89;;;14.94;32.96
39954;BME280;25631;51.516;-0.470;2022-10-16T12:52:22;100976.06;;;15.23;32.99
39954;BME280;25631;51.516;-0.470;2022-10-16T12:55:00;100976.32;;;15.03;32.73
39954;BME280;25631;51.516;-0.470;2022-10-16T12:57:43;100977.08;;;15.00;32.92
39954;BME280;25631;51.516;-0.470;2022-10-16T13:00:32;100974.99;;;15.17;32.80
39954;BME280;25631;51.516;-0.470;2022-10-16T13:03:27;100969.93;;;15.25;32.97
39954;BME280;25631;51.516;-0.470;2022-10-16T13:06:17;100959.68;;;15.39;32.98
39954;BME280;25631;51.516;-0.470;2022-10-16T13:09:07;100954.75;;;15.37;32.79
39954;BME280;25631;51.516;-0.470;2022-10-16T13:12:00;100951.01;;;15.31;32.75
39954;BME280;25631;51.516;-0.470;2022-10-16T13:14:57;100958.01;;;15.40;32.90
39954;BME280;25631;51.516;-0.470;2022-10-16T13:17:43;100969.86;;;15.58;33.11
39954;BME280;25631;51.516;-0.470;2022-10-16T13:20:26;100966.82;;;15.45;33.06
39954;BME280;25631;51.516;-0.470;2022-10-16T13:23:14;100969.33;;;15.20;33.00
39954;BME280;25631;51.516;-0.470;2022-10-16T13:26:05;100974.35;;;15.59;33.02
39954;BME280;25631;51.516;-0.470;2022-10-16T13:28:45;100970.62;;;15.62;32.78
39954;BME280;25631;51.516;-0.470;2022-10-16T13:31:24;100971.71;;;15.80;32.88
39954;BME280;25631;51.516;-0.470;2022-10-16T13:34:01;100972.27;;;15.98;32.83
39954;BME280;25631;51.516;-0.470;2022-10-16T13:36:44;100966.60;;;16.19;32.67
39954;BME280;25631;51.516;-0.470;2022-10-16T13:39:23;100959.59;;;16.30;32.26
39954;BME280;25631;51.516;-0.470;2022-10-16T13:42:03;100954.72;;;16.35;32.44
39954;BME280;25631;51.516;-0.470;2022-10-16T13:44:42;100950.41;;;16.40;32.46
39954;BME280;25631;51.516;-0.470;2022-10-16T13:47:21;100943.90;;;16.66;32.56